Time;durP1;ratioP1;P1;durP2;ratioP2;P2;SDS_P1;SDS_P2;PMS_P1;PMS_P2;Temp;Humidity;BMP_temperature;BMP_pressure;BME280_temperature;BME280_humidity;BME280_pressure;Samples;Min_cycle;Max_cycle;Signal;HPM_P1;HPM_P2
2021/04/21 00:00:33;;;;;;;16.23;14.70;;;;;;;7.53;93.94;97881.19;5059361;28;20223;-73
2021/04/21 00:03:01;;;;;;;17.10;15.50;;;;;;;7.48;94.27;97888.72;5060247;28;20207;-72
2021/04/21 00:05:29;;;;;;;16.10;14.60;;;;;;;7.42;95.00;97882.25;5060422;28;20203;-71
2021/04/21 00:07:58;;;;;;;16.97;15.40;;;;;;;7.34;95.17;97879.50;5060551;28;20206;-72
2021/04/21 00:10:25;;;;;;;16.83;15.33;;;;;;;7.35;96.05;97882.00;5058323;28;20231;-71
2021/04/21 00:12:54;;;;;;;16.63;15.10;;;;;;;7.36;96.00;97877.53;5061269;28;20215;-72
2021/04/21 00:15:22;;;;;;;17.00;15.50;;;;;;;7.27;96.23;97876.63;5061980;28;20218;-71
2021/04/21 00:17:53;;;;;;;17.77;16.07;;;;;;;7.38;95.89;97871.16;5059572;28;20209;-72
2021/04/21 00:20:21;;;;;;;17.20;15.70;;;;;;;7.41;95.65;97875.31;5061554;28;20207;-72
2021/04/21 00:22:52;;;;;;;16.60;15.20;;;;;;;7.27;96.00;97876.63;5061523;28;20714;-71
2021/04/21 00:25:20;;;;;;;15.83;14.63;;;;;;;7.29;96.14;97872.03;5058160;28;20215;-70
2021/04/21 00:27:47;;;;;;;15.73;14.33;;;;;;;7.31;95.98;97863.97;5058869;28;20210;-71
2021/04/21 00:30:15;;;;;;;16.80;15.20;;;;;;;7.23;97.15;97868.16;5061789;28;20222;-71
2021/04/21 00:32:45;;;;;;;16.97;15.33;;;;;;;7.23;96.57;97862.91;5060577;28;20575;-71
2021/04/21 00:35:13;;;;;;;17.03;15.53;;;;;;;7.38;95.80;97868.50;5054515;28;20195;-71
2021/04/21 00:37:42;;;;;;;16.77;15.27;;;;;;;7.22;96.90;97869.16;5058696;28;20216;-71
2021/04/21 00:40:12;;;;;;;17.77;16.00;;;;;;;7.18;97.30;97866.94;5059727;28;20207;-72
2021/04/21 00:42:49;;;;;;;16.23;14.80;;;;;;;7.24;96.50;97872.47;5060776;28;20207;-72
2021/04/21 00:45:17;;;;;;;16.60;14.93;;;;;;;7.17;96.87;97863.47;5063023;28;20218;-72
2021/04/21 00:47:51;;;;;;;16.30;14.80;;;;;;;7.21;96.03;97853.50;5054852;28;20229;-72
2021/04/21 00:50:21;;;;;;;16.50;14.93;;;;;;;7.18;96.82;97856.38;5060603;28;20227;-72
2021/04/21 00:52:49;;;;;;;16.57;15.00;;;;;;;7.23;96.92;97852.34;5058570;28;20203;-72
2021/04/21 00:55:21;;;;;;;17.07;15.47;;;;;;;7.02;97.68;97859.69;5059104;28;20208;-72
2021/04/21 00:57:58;;;;;;;16.90;15.30;;;;;;;7.05;98.45;97854.13;5058502;28;20199;-73
2021/04/21 01:00:28;;;;;;;16.87;15.43;;;;;;;6.99;98.83;97858.16;5055858;28;20227;-71
2021/04/21 01:02:58;;;;;;;17.77;15.93;;;;;;;6.95;99.05;97859.41;5057179;28;20218;-73
2021/04/21 01:05:27;;;;;;;17.67;16.13;;;;;;;7.02;98.08;97857.03;5055632;28;20210;-72
2021/04/21 01:08:05;;;;;;;17.43;15.83;;;;;;;6.94;98.77;97858.56;5059244;28;20490;-72
2021/04/21 01:10:34;;;;;;;18.20;16.40;;;;;;;6.90;99.23;97862.47;5056423;28;20242;-71
2021/04/21 01:13:02;;;;;;;16.60;15.03;;;;;;;6.86;99.07;97855.81;5056283;28;20203;-72
2021/04/21 01:15:32;;;;;;;18.77;16.90;;;;;;;6.93;99.06;97850.81;5060547;28;20639;-71
2021/04/21 01:18:00;;;;;;;18.10;16.33;;;;;;;7.00;97.89;97856.31;5059051;28;20214;-72
2021/04/21 01:20:30;;;;;;;17.37;15.87;;;;;;;7.04;96.81;97850.63;5060572;28;20221;-72
2021/04/21 01:23:24;;;;;;;17.03;15.53;;;;;;;6.98;97.88;97847.75;5058413;28;20604;-72
2021/04/21 01:26:01;;;;;;;18.50;16.70;;;;;;;6.90;98.10;97851.94;5059735;28;20206;-72
2021/04/21 01:28:29;;;;;;;16.03;14.63;;;;;;;6.81;98.62;97848.34;5059958;28;20198;-72
2021/04/21 01:30:58;;;;;;;17.73;15.93;;;;;;;6.74;98.56;97847.25;5060592;28;20227;-72
2021/04/21 01:33:26;;;;;;;17.50;15.90;;;;;;;6.61;99.19;97855.47;5061529;28;20202;-70
2021/04/21 01:35:57;;;;;;;17.03;15.47;;;;;;;6.56;100.00;97839.28;5053869;28;20207;-73
2021/04/21 01:38:24;;;;;;;18.37;16.57;;;;;;;6.66;100.00;97850.63;5058433;28;20217;-71
2021/04/21 01:40:52;;;;;;;18.63;16.77;;;;;;;6.76;98.25;97850.59;5055289;28;20218;-72
2021/04/21 01:43:21;;;;;;;17.47;15.87;;;;;;;6.71;98.25;97844.09;5060617;28;20209;-72
2021/04/21 01:45:53;;;;;;;17.97;16.33;;;;;;;6.55;98.65;97842.88;5059587;28;20206;-72
2021/04/21 01:48:22;;;;;;;17.47;15.87;;;;;;;6.53;100.00;97838.75;5057268;28;20206;-73
2021/04/21 01:50:50;;;;;;;18.90;17.20;;;;;;;6.39;99.88;97846.09;5058181;28;20222;-72
2021/04/21 01:53:23;;;;;;;18.87;16.97;;;;;;;6.34;100.00;97849.16;5059456;28;20622;-72
2021/04/21 01:56:02;;;;;;;19.20;17.20;;;;;;;6.34;100.00;97846.53;5056017;28;20968;-72
2021/04/21 01:58:33;;;;;;;19.73;17.83;;;;;;;6.40;100.00;97841.66;5057950;28;20390;-72
2021/04/21 02:01:04;;;;;;;20.20;18.20;;;;;;;6.33;100.00;97838.75;5054209;28;20715;-72
2021/04/21 02:03:34;;;;;;;19.77;17.77;;;;;;;6.30;100.00;97841.69;5055735;28;20242;-72
2021/04/21 02:06:16;;;;;;;19.90;18.00;;;;;;;6.17;100.00;97842.81;5055875;28;20334;-71
2021/04/21 02:08:56;;;;;;;19.23;17.53;;;;;;;6.13;100.00;97843.22;5053102;28;20226;-72
2021/04/21 02:11:25;;;;;;;19.83;17.93;;;;;;;5.99;100.00;97847.06;5055737;28;20230;-73
2021/04/21 02:14:12;;;;;;;20.70;18.70;;;;;;;5.99;100.00;97839.16;5055746;28;20702;-72
2021/04/21 02:16:47;;;;;;;21.10;18.90;;;;;;;6.14;100.00;97839.63;5059785;28;20215;-72
2021/04/21 02:19:35;;;;;;;20.33;18.23;;;;;;;6.06;100.00;97846.41;5056418;28;20202;-72
2021/04/21 02:22:09;;;;;;;22.30;20.10;;;;;;;5.92;100.00;97844.19;5057544;28;20238;-72
2021/04/21 02:24:47;;;;;;;21.60;19.50;;;;;;;6.00;100.00;97840.84;5058506;28;20466;-71
2021/04/21 02:27:22;;;;;;;21.97;19.77;;;;;;;6.08;100.00;97844.47;5054406;28;20222;-72
2021/04/21 02:29:57;;;;;;;20.63;18.57;;;;;;;5.92;100.00;97846.81;5057246;28;20229;-72
2021/04/21 02:32:33;;;;;;;21.27;19.17;;;;;;;5.90;100.00;97846.13;5056646;28;20233;-72
2021/04/21 02:35:06;;;;;;;21.13;19.03;;;;;;;5.92;100.00;97850.25;5055746;28;20301;-71
2021/04/21 02:37:37;;;;;;;20.90;18.83;;;;;;;5.99;100.00;97849.69;5055452;28;20585;-72
2021/04/21 02:40:11;;;;;;;21.03;18.97;;;;;;;5.93;100.00;97848.47;5054796;28;20271;-72
2021/04/21 02:42:43;;;;;;;22.17;19.93;;;;;;;5.94;100.00;97850.13;5058638;28;20221;-71
2021/04/21 02:45:19;;;;;;;21.60;19.57;;;;;;;5.79;100.00;97855.78;5057958;28;20403;-72
2021/04/21 02:47:52;;;;;;;22.80;20.50;;;;;;;5.75;100.00;97854.38;5055802;28;20400;-72
2021/04/21 02:50:23;;;;;;;21.23;19.10;;;;;;;5.72;100.00;97859.94;5059107;28;20222;-72
2021/04/21 02:53:07;;;;;;;21.80;19.63;;;;;;;5.71;100.00;97854.81;5057255;28;20596;-70
2021/04/21 02:55:43;;;;;;;21.13;18.83;;;;;;;5.67;100.00;97851.63;5053614;28;20575;-70
2021/04/21 02:58:13;;;;;;;20.90;18.90;;;;;;;5.61;100.00;97847.72;5056862;28;20206;-70
2021/04/21 03:00:44;;;;;;;21.63;19.43;;;;;;;5.78;100.00;97855.94;5059539;28;20229;-70
2021/04/21 03:03:27;;;;;;;21.87;19.40;;;;;;;5.76;100.00;97855.22;5060799;28;20199;-72
2021/04/21 03:06:00;;;;;;;23.37;19.43;;;;;;;5.69;100.00;97854.94;5055285;28;20506;-71
2021/04/21 03:08:32;;;;;;;21.47;19.17;;;;;;;5.72;100.00;97857.28;5061022;28;20214;-70
2021/04/21 03:11:06;;;;;;;20.23;18.13;;;;;;;5.68;100.00;97853.28;5059953;28;20223;-71
2021/04/21 03:13:36;;;;;;;22.83;20.70;;;;;;;5.71;100.00;97846.94;5057543;28;20289;-71
2021/04/21 03:16:10;;;;;;;21.50;19.33;;;;;;;5.65;100.00;97856.19;5063511;28;20234;-71
2021/04/21 03:18:41;;;;;;;20.00;18.20;;;;;;;5.59;100.00;97848.84;5057971;28;20199;-71
2021/04/21 03:21:13;;;;;;;20.50;18.63;;;;;;;5.63;100.00;97855.50;5061457;28;20227;-72
2021/04/21 03:23:42;;;;;;;20.97;18.93;;;;;;;5.61;100.00;97854.78;5060971;28;20627;-71
2021/04/21 03:26:10;;;;;;;20.10;18.20;;;;;;;5.62;100.00;97856.47;5061480;28;20207;-72
2021/04/21 03:28:39;;;;;;;22.87;20.57;;;;;;;5.72;100.00;97845.97;5058375;28;20472;-71
2021/04/21 03:31:09;;;;;;;22.60;20.17;;;;;;;5.63;100.00;97850.22;5061543;28;20250;-71
2021/04/21 03:33:41;;;;;;;22.60;20.33;;;;;;;5.43;100.00;97849.38;5058583;28;20214;-70
2021/04/21 03:36:09;;;;;;;20.90;18.80;;;;;;;5.31;100.00;97851.25;5060617;28;20559;-71
2021/04/21 03:38:36;;;;;;;22.43;20.33;;;;;;;5.28;100.00;97844.47;5058791;28;20595;-72
2021/04/21 03:41:03;;;;;;;20.90;18.90;;;;;;;5.38;100.00;97839.25;5056469;28;20229;-71
2021/04/21 03:43:32;;;;;;;21.27;19.23;;;;;;;5.30;100.00;97846.97;5058928;28;20470;-71
2021/04/21 03:45:59;;;;;;;21.00;18.63;;;;;;;5.24;100.00;97843.06;5058328;28;20203;-71
2021/04/21 03:48:27;;;;;;;21.57;19.47;;;;;;;5.19;100.00;97846.13;5062052;28;20198;-71
2021/04/21 03:50:55;;;;;;;20.77;18.77;;;;;;;5.16;100.00;97843.75;5057187;28;20239;-71
2021/04/21 03:53:25;;;;;;;21.37;19.07;;;;;;;5.15;100.00;97839.47;5060275;28;20206;-71
2021/04/21 03:55:55;;;;;;;21.20;19.03;;;;;;;5.24;100.00;97840.44;5060258;28;20203;-72
2021/04/21 03:58:23;;;;;;;22.03;19.87;;;;;;;5.25;100.00;97841.28;5061516;28;20211;-72
2021/04/21 04:00:54;;;;;;;21.33;19.23;;;;;;;5.20;100.00;97837.28;5058971;28;20223;-71
2021/04/21 04:03:24;;;;;;;20.73;18.60;;;;;;;5.16;100.00;97840.28;5059444;28;20644;-71
2021/04/21 04:05:56;;;;;;;21.90;19.70;;;;;;;5.19;100.00;97835.63;5058380;28;20237;-72
2021/04/21 04:08:26;;;;;;;21.53;19.33;;;;;;;5.13;100.00;97836.16;5059491;28;20738;-72
2021/04/21 04:10:54;;;;;;;20.73;18.63;;;;;;;5.01;100.00;97832.78;5059677;28;20227;-67
2021/04/21 04:13:24;;;;;;;21.57;19.53;;;;;;;5.06;100.00;97835.00;5059210;28;20207;-67
2021/04/21 04:15:52;;;;;;;20.60;18.57;;;;;;;5.01;100.00;97839.81;5055962;28;20222;-67
2021/04/21 04:18:22;;;;;;;22.60;20.33;;;;;;;5.07;100.00;97840.13;5059254;28;20207;-66
2021/04/21 04:20:51;;;;;;;22.57;20.23;;;;;;;4.97;100.00;97835.81;5059425;28;20249;-67
2021/04/21 04:23:20;;;;;;;22.00;19.80;;;;;;;5.00;100.00;97844.25;5057626;28;20534;-67
2021/04/21 04:25:48;;;;;;;21.87;19.67;;;;;;;5.01;100.00;97853.78;5057985;28;20214;-66
2021/04/21 04:28:16;;;;;;;23.00;19.60;;;;;;;4.95;100.00;97848.22;5056589;28;20203;-67
2021/04/21 04:30:43;;;;;;;21.83;19.63;;;;;;;4.95;100.00;97846.44;5059996;28;20231;-67
2021/04/21 04:33:11;;;;;;;23.20;20.10;;;;;;;4.96;100.00;97853.38;5059452;28;20200;-66
2021/04/21 04:35:38;;;;;;;22.03;18.30;;;;;;;5.00;100.00;97846.88;5059238;28;20218;-73
2021/04/21 04:38:05;;;;;;;20.23;18.13;;;;;;;4.98;100.00;97854.06;5057297;28;20210;-73
2021/04/21 04:40:34;;;;;;;20.77;18.70;;;;;;;5.04;100.00;97857.94;5057158;28;20230;-73
2021/04/21 04:43:01;;;;;;;21.20;19.00;;;;;;;5.26;100.00;97856.09;5059142;28;20739;-74
2021/04/21 04:45:30;;;;;;;21.40;19.10;;;;;;;5.18;100.00;97854.97;5058232;28;20274;-73
2021/04/21 04:47:59;;;;;;;20.40;18.33;;;;;;;5.17;100.00;97862.97;5059499;28;20213;-72
2021/04/21 04:50:27;;;;;;;22.73;20.43;;;;;;;5.05;100.00;97856.97;5058890;28;20227;-73
2021/04/21 04:52:55;;;;;;;21.57;19.47;;;;;;;5.17;100.00;97866.44;5055940;28;20199;-73
2021/04/21 04:55:23;;;;;;;20.63;18.53;;;;;;;5.31;100.00;97867.03;5058925;28;20291;-73
2021/04/21 04:57:53;;;;;;;20.47;18.47;;;;;;;5.39;100.00;97863.75;5058839;28;20202;-73
2021/04/21 05:00:22;;;;;;;22.63;20.17;;;;;;;5.52;100.00;97868.75;5060964;28;20668;-73
2021/04/21 05:02:53;;;;;;;21.80;19.53;;;;;;;5.48;100.00;97869.00;5055749;28;20199;-73
2021/04/21 05:05:21;;;;;;;22.13;19.97;;;;;;;5.64;100.00;97878.19;5060021;28;20583;-73
2021/04/21 05:07:53;;;;;;;21.43;19.43;;;;;;;5.51;100.00;97883.69;5057546;28;20211;-73
2021/04/21 05:10:26;;;;;;;21.30;19.17;;;;;;;5.53;100.00;97879.13;5059370;28;20707;-73
2021/04/21 05:12:57;;;;;;;21.07;18.97;;;;;;;5.62;100.00;97880.13;5058307;28;20719;-73
2021/04/21 05:16:01;;;;;;;21.70;19.70;;;;;;;5.72;100.00;97877.50;5058730;28;20218;-73
2021/04/21 05:18:58;;;;;;;19.37;17.60;;;;;;;5.73;100.00;97880.00;5054376;28;20202;-73
2021/04/21 05:21:49;;;;;;;23.57;19.87;;;;;;;5.74;100.00;97884.28;5054687;28;20306;-73
2021/04/21 05:25:01;;;;;;;22.33;20.13;;;;;;;5.89;100.00;97891.78;5029620;28;20206;-73
2021/04/21 05:28:20;;;;;;;21.03;19.07;;;;;;;5.80;100.00;97886.38;5058588;28;20195;-72
2021/04/21 05:31:35;;;;;;;21.13;19.07;;;;;;;6.02;100.00;97896.78;5060416;28;20334;-73
2021/04/21 05:34:42;;;;;;;22.27;20.17;;;;;;;6.14;100.00;97886.97;5055712;28;20199;-72
2021/04/21 05:37:44;;;;;;;20.20;15.87;;;;;;;6.37;100.00;97890.16;5057249;28;20697;-73
2021/04/21 05:40:44;;;;;;;16.93;15.13;;;;;;;6.60;100.00;97890.66;5057548;28;20213;-73
2021/04/21 05:43:44;;;;;;;17.23;14.30;;;;;;;6.81;97.86;97892.31;5057413;28;20218;-73
2021/04/21 05:47:00;;;;;;;20.10;18.00;;;;;;;6.71;100.00;97894.16;5057206;28;20579;-73
2021/04/21 05:50:12;;;;;;;19.87;17.17;;;;;;;6.78;99.01;97897.88;5027301;28;20206;-72
2021/04/21 05:53:16;;;;;;;18.13;16.10;;;;;;;6.82;99.92;97896.59;5031138;28;20210;-72
2021/04/21 05:56:27;;;;;;;18.57;15.93;;;;;;;6.87;98.98;97890.91;5026758;28;20649;-73
2021/04/21 05:59:30;;;;;;;14.07;12.67;;;;;;;7.17;97.91;97889.00;5058111;28;20214;-73
2021/04/21 06:01:57;;;;;;;15.30;13.37;;;;;;;7.15;96.99;97891.78;5061421;28;20226;-74
2021/04/21 06:04:24;;;;;;;15.63;13.70;;;;;;;7.28;96.80;97894.09;5056929;28;20203;-73
2021/04/21 06:07:04;;;;;;;16.37;13.23;;;;;;;7.48;95.95;97889.56;5058561;28;20214;-73
2021/04/21 06:09:32;;;;;;;18.33;16.37;;;;;;;7.43;94.93;97894.44;5058343;28;20213;-73
2021/04/21 06:12:07;;;;;;;18.73;16.43;;;;;;;7.38;95.64;97891.41;5057093;28;20554;-73
2021/04/21 06:14:34;;;;;;;18.03;16.13;;;;;;;7.43;95.51;97898.88;5056664;28;20672;-73
2021/04/21 06:17:01;;;;;;;19.77;17.70;;;;;;;7.50;95.37;97899.94;5058014;28;20468;-74
2021/04/21 06:19:28;;;;;;;18.37;16.47;;;;;;;7.28;94.85;97902.00;5057697;28;20692;-73
2021/04/21 06:21:56;;;;;;;18.33;16.63;;;;;;;7.41;95.28;97906.09;5057047;28;20218;-73
2021/04/21 06:24:25;;;;;;;20.40;18.30;;;;;;;7.55;93.30;97902.16;5057507;28;20205;-73
2021/04/21 06:27:06;;;;;;;18.43;16.63;;;;;;;7.44;93.04;97906.66;5058214;28;20231;-73
2021/04/21 06:29:33;;;;;;;19.27;17.27;;;;;;;7.41;93.02;97906.94;5061124;28;20210;-73
2021/04/21 06:32:03;;;;;;;20.80;18.70;;;;;;;7.35;92.66;97910.16;5064899;28;20223;-73
2021/04/21 06:34:30;;;;;;;22.33;20.13;;;;;;;7.21;92.65;97912.28;5060778;28;20195;-73
2021/04/21 06:36:58;;;;;;;21.53;19.27;;;;;;;7.33;92.24;97915.59;5061930;28;20203;-73
2021/04/21 06:39:27;;;;;;;28.87;21.80;;;;;;;7.71;91.23;97909.44;5060149;28;20453;-73
2021/04/21 06:41:57;;;;;;;21.13;19.13;;;;;;;7.83;90.59;97916.16;5064208;28;20219;-72
2021/04/21 06:44:30;;;;;;;21.33;19.23;;;;;;;7.80;90.90;97919.94;5061165;28;20203;-73
2021/04/21 06:46:57;;;;;;;21.20;18.67;;;;;;;8.11;88.69;97921.38;5062366;28;20373;-73
2021/04/21 06:49:24;;;;;;;19.73;17.73;;;;;;;8.35;87.07;97927.91;5063494;28;20209;-73
2021/04/21 06:51:51;;;;;;;20.27;18.27;;;;;;;8.45;85.58;97915.44;5060730;28;20230;-73
2021/04/21 06:54:20;;;;;;;20.60;18.70;;;;;;;8.22;87.62;97918.53;5060126;28;20214;-73
2021/04/21 06:56:49;;;;;;;20.47;18.43;;;;;;;8.27;87.08;97918.09;5063283;28;20199;-73
2021/04/21 06:59:19;;;;;;;20.50;18.63;;;;;;;8.22;87.57;97917.72;5060933;28;20207;-73
2021/04/21 07:01:50;;;;;;;20.70;18.80;;;;;;;8.37;87.46;97926.75;5062591;28;20610;-73
2021/04/21 07:04:18;;;;;;;21.57;19.47;;;;;;;8.33;87.00;97925.38;5061415;28;20234;-73
2021/04/21 07:06:49;;;;;;;21.50;19.40;;;;;;;8.51;86.53;97921.94;5060834;28;20295;-74
2021/04/21 07:09:17;;;;;;;21.57;19.43;;;;;;;8.57;86.06;97921.34;5058706;28;20293;-72
2021/04/21 07:11:45;;;;;;;22.27;20.37;;;;;;;8.57;85.97;97923.97;5061454;28;20226;-74
2021/04/21 07:14:17;;;;;;;21.47;19.10;;;;;;;9.18;82.08;97921.41;5059557;28;20294;-73
2021/04/21 07:16:45;;;;;;;21.27;19.37;;;;;;;9.12;82.89;97924.66;5059641;28;20195;-73
2021/04/21 07:19:13;;;;;;;23.80;21.50;;;;;;;9.35;80.46;97932.09;5057078;28;20210;-73
2021/04/21 07:21:40;;;;;;;22.37;20.37;;;;;;;9.21;81.38;97928.19;5058403;28;20226;-73
2021/04/21 07:24:10;;;;;;;21.73;19.47;;;;;;;9.31;80.81;97928.09;5060158;28;20229;-73
2021/04/21 07:26:38;;;;;;;22.87;20.43;;;;;;;9.37;80.74;97930.91;5062479;28;20210;-74
2021/04/21 07:29:08;;;;;;;20.97;19.07;;;;;;;9.57;79.28;97930.69;5061846;28;20207;-73
2021/04/21 07:31:36;;;;;;;22.27;20.07;;;;;;;9.65;79.74;97936.00;5060908;28;20242;-72
2021/04/21 07:34:28;;;;;;;22.97;20.77;;;;;;;9.49;79.31;97934.13;5057201;28;20215;-73
2021/04/21 07:36:55;;;;;;;22.67;20.57;;;;;;;9.61;79.15;97931.19;5060785;28;20203;-73
2021/04/21 07:39:31;;;;;;;23.73;20.87;;;;;;;9.89;76.91;97931.81;5059940;28;20213;-73
2021/04/21 07:41:58;;;;;;;22.73;20.63;;;;;;;9.30;80.60;97932.53;5060013;28;20222;-73
2021/04/21 07:44:27;;;;;;;23.67;21.33;;;;;;;9.69;79.55;97936.53;5061995;28;20207;-73
2021/04/21 07:46:54;;;;;;;22.60;20.17;;;;;;;9.94;77.96;97924.19;5060289;28;20211;-73
2021/04/21 07:49:29;;;;;;;24.07;21.80;;;;;;;10.04;77.83;97934.66;5059695;28;20207;-73
2021/04/21 07:51:57;;;;;;;24.80;21.30;;;;;;;10.24;76.16;97929.03;5059918;28;20223;-73
2021/04/21 07:54:26;;;;;;;24.40;21.80;;;;;;;10.42;75.09;97931.59;5061471;28;20583;-72
2021/04/21 07:57:01;;;;;;;24.60;22.03;;;;;;;10.49;74.78;97934.41;5060386;28;20203;-73
2021/04/21 07:59:30;;;;;;;23.03;20.93;;;;;;;10.72;74.56;97929.28;5058705;28;20226;-72
2021/04/21 08:02:03;;;;;;;24.00;21.57;;;;;;;10.99;72.43;97914.81;5060661;28;20215;-73
2021/04/21 08:04:31;;;;;;;23.40;20.90;;;;;;;10.97;71.92;97922.13;5061062;28;20219;-74
2021/04/21 08:07:00;;;;;;;24.70;22.20;;;;;;;10.48;74.33;97930.09;5060191;28;20203;-73
2021/04/21 08:09:35;;;;;;;25.97;19.07;;;;;;;10.45;73.95;97933.09;5057953;28;20207;-73
2021/04/21 08:12:13;;;;;;;20.97;18.90;;;;;;;10.51;75.64;97930.59;5058109;28;20231;-72
2021/04/21 08:14:43;;;;;;;22.40;20.10;;;;;;;10.61;74.27;97935.72;5059998;28;20207;-73
2021/04/21 08:17:10;;;;;;;21.97;19.67;;;;;;;10.63;75.05;97931.09;5061888;28;20203;-73
2021/04/21 08:19:41;;;;;;;20.53;18.57;;;;;;;10.82;72.99;97934.41;5060360;28;20300;-73
2021/04/21 08:22:08;;;;;;;22.97;19.07;;;;;;;10.75;72.88;97936.88;5059318;28;20219;-73
2021/04/21 08:24:45;;;;;;;21.63;19.53;;;;;;;10.83;72.43;97928.94;5060308;28;20627;-74
2021/04/21 08:27:14;;;;;;;22.50;20.30;;;;;;;11.05;70.46;97931.88;5058885;28;20202;-73
2021/04/21 08:29:41;;;;;;;21.17;18.97;;;;;;;11.31;70.42;97930.81;5059827;28;20230;-73
2021/04/21 08:32:09;;;;;;;22.20;19.97;;;;;;;11.31;69.62;97916.75;5060047;28;20630;-73
2021/04/21 08:34:36;;;;;;;20.77;18.43;;;;;;;11.68;68.57;97931.19;5061383;28;20207;-73
2021/04/21 08:37:05;;;;;;;21.67;19.40;;;;;;;11.82;66.70;97927.81;5059175;28;20233;-73
2021/04/21 08:39:36;;;;;;;20.03;17.83;;;;;;;11.92;65.81;97927.59;5057604;28;20649;-73
2021/04/21 08:42:06;;;;;;;22.20;18.27;;;;;;;11.95;65.49;97927.25;5060401;28;20226;-73
2021/04/21 08:44:40;;;;;;;20.40;17.23;;;;;;;12.05;65.63;97931.53;5057934;28;20678;-73
2021/04/21 08:47:14;;;;;;;18.97;16.97;;;;;;;12.34;65.34;97928.22;5061967;28;20225;-73
2021/04/21 08:49:42;;;;;;;19.17;17.27;;;;;;;12.42;65.53;97925.50;5057539;28;20298;-73
2021/04/21 08:52:11;;;;;;;23.07;16.90;;;;;;;12.92;62.66;97932.22;5057939;28;20235;-73
2021/04/21 08:54:39;;;;;;;23.00;19.93;;;;;;;12.95;60.98;97929.22;5060595;28;20207;-74
2021/04/21 08:57:07;;;;;;;21.63;19.33;;;;;;;13.02;60.68;97938.13;5059454;28;20213;-73
2021/04/21 08:59:35;;;;;;;18.93;17.00;;;;;;;13.07;58.29;97932.22;5059251;28;20228;-72
2021/04/21 09:02:02;;;;;;;20.60;18.33;;;;;;;13.08;58.00;97939.22;5059266;28;20230;-73
2021/04/21 09:04:30;;;;;;;18.20;16.37;;;;;;;13.27;58.00;97937.88;5057442;28;20206;-73
2021/04/21 09:06:57;;;;;;;17.73;16.03;;;;;;;13.29;57.60;97936.66;5059214;28;20202;-73
2021/04/21 09:09:25;;;;;;;17.37;15.70;;;;;;;13.25;58.28;97932.72;5059323;28;20429;-73
2021/04/21 09:11:54;;;;;;;17.77;15.13;;;;;;;13.41;58.48;97937.03;5058403;28;20227;-74
2021/04/21 09:14:21;;;;;;;18.47;16.07;;;;;;;13.60;56.92;97935.69;5058214;28;20215;-73
2021/04/21 09:16:48;;;;;;;16.67;15.17;;;;;;;14.00;54.25;97931.88;5057204;28;20607;-73
2021/04/21 09:19:16;;;;;;;16.33;14.93;;;;;;;14.01;55.81;97937.00;5058231;28;20245;-73
2021/04/21 09:21:43;;;;;;;16.87;15.37;;;;;;;14.09;56.28;97941.38;5057453;28;20218;-72
2021/04/21 09:24:26;;;;;;;19.80;18.00;;;;;;;14.15;56.24;97937.16;5058641;28;20207;-72
2021/04/21 09:26:53;;;;;;;18.83;17.17;;;;;;;13.64;57.20;97938.81;5057575;28;20199;-73
2021/04/21 09:29:27;;;;;;;18.80;16.83;;;;;;;14.22;56.17;97931.91;5060420;28;20202;-73
2021/04/21 09:32:07;;;;;;;17.80;16.27;;;;;;;14.00;56.04;97929.19;5060016;28;20226;-72
2021/04/21 09:34:57;;;;;;;17.40;15.60;;;;;;;14.10;55.93;97924.38;5057150;28;20199;-71
2021/04/21 09:37:24;;;;;;;17.70;16.20;;;;;;;14.28;55.23;97926.63;5057804;28;20203;-73
2021/04/21 09:39:52;;;;;;;16.10;14.60;;;;;;;14.34;53.67;97917.06;5055193;28;20755;-73
2021/04/21 09:42:26;;;;;;;16.67;15.27;;;;;;;14.21;52.85;97922.25;5058881;28;20512;-73
2021/04/21 09:44:53;;;;;;;16.10;14.60;;;;;;;14.44;51.71;97919.41;5054558;28;20211;-73
2021/04/21 09:47:20;;;;;;;17.10;15.50;;;;;;;14.53;53.99;97917.41;5057578;28;20203;-73
2021/04/21 09:49:55;;;;;;;16.27;14.77;;;;;;;14.59;53.12;97914.81;5056586;28;20246;-72
2021/04/21 09:52:29;;;;;;;17.80;16.23;;;;;;;14.74;52.81;97909.44;5054366;28;20586;-73
2021/04/21 09:54:58;;;;;;;17.53;15.83;;;;;;;14.35;53.41;97909.88;5056665;28;20209;-73
2021/04/21 09:57:27;;;;;;;16.13;14.73;;;;;;;14.80;52.25;97907.84;5056767;28;20198;-73
2021/04/21 09:59:57;;;;;;;15.93;14.67;;;;;;;15.01;50.55;97903.47;5057072;28;20659;-73
2021/04/21 10:02:34;;;;;;;16.10;14.60;;;;;;;14.63;50.63;97907.28;5058264;28;20250;-73
2021/04/21 10:05:24;;;;;;;15.43;14.03;;;;;;;14.76;50.60;97896.72;5060818;28;20211;-73
2021/04/21 10:08:14;;;;;;;14.97;13.47;;;;;;;14.83;50.66;97899.47;5058198;28;20695;-72
2021/04/21 10:10:43;;;;;;;14.50;13.27;;;;;;;15.42;49.10;97891.19;5062137;28;20230;-72
2021/04/21 10:13:16;;;;;;;15.73;14.23;;;;;;;15.60;47.10;97902.16;5059809;28;20202;-73
2021/04/21 10:16:00;;;;;;;17.57;15.53;;;;;;;15.41;48.10;97889.56;5061285;28;20199;-73
2021/04/21 10:18:27;;;;;;;15.80;14.47;;;;;;;15.34;46.22;97884.16;5060388;28;20209;-73
2021/04/21 10:20:54;;;;;;;14.80;13.33;;;;;;;15.48;45.99;97879.72;5061845;28;20222;-72
2021/04/21 10:23:21;;;;;;;14.73;13.43;;;;;;;15.81;45.05;97881.69;5062266;28;20225;-73
2021/04/21 10:25:49;;;;;;;13.07;11.87;;;;;;;15.73;43.76;97887.22;5061955;28;20207;-72
2021/04/21 10:28:16;;;;;;;14.20;12.73;;;;;;;15.71;44.83;97881.22;5063461;28;20206;-73
2021/04/21 10:30:43;;;;;;;11.97;10.87;;;;;;;16.06;45.74;97867.81;5062238;28;20234;-73
2021/04/21 10:33:11;;;;;;;11.13;10.00;;;;;;;16.31;42.21;97869.91;5059380;28;20214;-72
2021/04/21 10:35:38;;;;;;;12.33;11.07;;;;;;;16.65;43.69;97865.41;5062849;28;20222;-73
2021/04/21 10:38:05;;;;;;;11.97;10.90;;;;;;;17.78;40.56;97860.78;5058933;28;20357;-73
2021/04/21 10:40:32;;;;;;;12.37;11.17;;;;;;;17.41;42.46;97860.53;5059050;28;20230;-73
2021/04/21 10:43:03;;;;;;;12.23;9.93;;;;;;;17.90;41.07;97857.44;5060973;28;20207;-73
2021/04/21 10:45:31;;;;;;;11.90;10.80;;;;;;;17.93;40.98;97855.16;5058963;28;20202;-73
2021/04/21 10:47:59;;;;;;;11.83;10.63;;;;;;;18.13;40.62;97856.94;5058707;28;20210;-72
2021/04/21 10:50:36;;;;;;;14.53;10.70;;;;;;;19.14;38.56;97845.38;5058201;28;20332;-73
2021/04/21 10:53:03;;;;;;;10.83;9.53;;;;;;;18.96;37.90;97840.75;5058572;28;20199;-73
2021/04/21 10:55:36;;;;;;;13.40;12.30;;;;;;;19.81;36.54;97833.81;5062333;28;20582;-73
2021/04/21 10:58:08;;;;;;;13.23;12.03;;;;;;;19.77;36.38;97838.00;5058204;28;20210;-73
2021/04/21 11:00:44;;;;;;;10.90;10.00;;;;;;;19.34;34.56;97830.91;5060513;28;20226;-74
2021/04/21 11:03:12;;;;;;;15.67;12.60;;;;;;;17.63;38.13;97834.31;5061547;28;20213;-73
2021/04/21 11:05:42;;;;;;;12.23;11.23;;;;;;;17.17;38.72;97835.28;5059182;28;20503;-73
2021/04/21 11:08:10;;;;;;;12.13;10.77;;;;;;;16.63;39.69;97830.81;5064280;28;20221;-73
2021/04/21 11:10:41;;;;;;;11.73;10.67;;;;;;;16.33;40.96;97838.44;5061200;28;20230;-73
2021/04/21 11:13:10;;;;;;;12.33;11.20;;;;;;;16.48;40.58;97830.22;5062025;28;20688;-73
2021/04/21 11:15:40;;;;;;;12.50;11.40;;;;;;;16.61;41.94;97829.41;5059579;28;20468;-73
2021/04/21 11:18:24;;;;;;;10.97;10.07;;;;;;;16.99;39.25;97834.09;5059063;28;20600;-73
2021/04/21 11:20:58;;;;;;;11.13;10.23;;;;;;;17.09;39.83;97830.16;5059770;28;20603;-73
2021/04/21 11:23:52;;;;;;;11.70;10.63;;;;;;;16.97;39.62;97825.44;5057116;28;20199;-72
2021/04/21 11:26:33;;;;;;;12.13;11.00;;;;;;;16.41;40.22;97830.22;5065016;28;20495;-72
2021/04/21 11:29:03;;;;;;;11.87;10.90;;;;;;;15.99;41.11;97825.03;5059458;28;20241;-73
2021/04/21 11:32:07;;;;;;;11.87;10.87;;;;;;;16.01;41.44;97827.50;5061716;28;20603;-73
2021/04/21 11:34:35;;;;;;;10.17;9.17;;;;;;;15.61;41.51;97822.88;5062947;28;20233;-72
2021/04/21 11:37:04;;;;;;;4.67;4.30;;;;;;;15.16;35.89;97828.63;5058361;28;20706;-73
2021/04/21 11:39:55;;;;;;;4.90;4.50;;;;;;;14.48;37.83;97836.16;5063762;28;20233;-73
2021/04/21 11:42:29;;;;;;;4.60;4.20;;;;;;;13.79;44.54;97842.91;5060810;28;20429;-72
2021/04/21 11:45:22;;;;;;;5.03;4.63;;;;;;;13.52;47.31;97826.66;5059885;28;20214;-73